Time;durP1;ratioP1;P1;durP2;ratioP2;P2;SDS_P1;SDS_P2;PMS_P1;PMS_P2;Temp;Humidity;BMP_temperature;BMP_pressure;BME280_temperature;BME280_humidity;BME280_pressure;Samples;Min_cycle;Max_cycle;Signal;HPM_P1;HPM_P2
2021/09/22 00:02:03;;;;;;;16.07;9.10;;;;;;;-143.90;100.00;58478.06;5089911;28;20445;-74
2021/09/22 00:04:29;;;;;;;15.43;10.47;;;;;;;-143.90;100.00;58478.06;5090243;28;20575;-74
2021/09/22 00:06:55;;;;;;;13.27;8.93;;;;;;;-143.90;100.00;58478.06;5089990;28;20675;-74
2021/09/22 00:09:21;;;;;;;13.90;8.40;;;;;;;-143.90;100.00;58478.06;5089924;28;20537;-72
2021/09/22 00:11:47;;;;;;;16.57;8.77;;;;;;;-143.90;100.00;58478.06;5090407;28;20921;-75
2021/09/22 00:14:12;;;;;;;17.63;10.90;;;;;;;-143.90;100.00;58478.06;5090710;28;20164;-75
2021/09/22 00:16:38;;;;;;;16.13;9.60;;;;;;;-143.90;100.00;58478.06;5090339;28;20158;-74
2021/09/22 00:19:03;;;;;;;15.77;8.90;;;;;;;-143.90;100.00;58478.06;5089799;28;20237;-74
2021/09/22 00:21:29;;;;;;;20.27;10.90;;;;;;;-143.90;100.00;58478.06;5089877;28;20187;-74
2021/09/22 00:23:55;;;;;;;17.40;8.80;;;;;;;-143.90;100.00;58478.06;5071918;28;20168;-74
2021/09/22 00:26:20;;;;;;;16.70;8.77;;;;;;;-143.90;100.00;58478.06;5088443;28;20159;-74
2021/09/22 00:28:46;;;;;;;22.13;10.73;;;;;;;-143.90;100.00;58478.06;5089528;28;20178;-75
2021/09/22 00:31:11;;;;;;;16.60;9.30;;;;;;;-143.90;100.00;58478.06;5089690;28;20228;-74
2021/09/22 00:33:37;;;;;;;13.70;8.97;;;;;;;-143.90;100.00;58478.06;5089307;28;20801;-72
2021/09/22 00:36:03;;;;;;;17.00;8.50;;;;;;;-143.90;100.00;58478.06;5089495;28;20607;-74
2021/09/22 00:38:28;;;;;;;17.07;9.67;;;;;;;-143.90;100.00;58478.06;5089220;28;20226;-72
2021/09/22 00:40:54;;;;;;;16.83;9.10;;;;;;;-143.90;100.00;58478.06;5089572;28;20445;-74
2021/09/22 00:43:19;;;;;;;13.67;7.37;;;;;;;-143.90;100.00;58478.06;5089225;28;20179;-73
2021/09/22 00:45:45;;;;;;;14.50;9.40;;;;;;;-143.90;100.00;58478.06;5096768;28;20162;-75
2021/09/22 00:48:11;;;;;;;20.93;8.60;;;;;;;-143.90;100.00;58478.06;5094360;28;20171;-74
2021/09/22 00:50:36;;;;;;;15.60;10.43;;;;;;;-143.90;100.00;58478.06;5089259;28;20195;-74
2021/09/22 00:53:03;;;;;;;13.53;8.07;;;;;;;-143.90;100.00;58478.06;5071115;28;20410;-75
2021/09/22 00:55:28;;;;;;;15.93;8.77;;;;;;;-143.90;100.00;58478.06;5088683;28;20191;-74
2021/09/22 00:57:55;;;;;;;12.80;9.63;;;;;;;-143.90;100.00;58478.06;5088528;28;20524;-75
2021/09/22 01:00:27;;;;;;;19.40;8.90;;;;;;;-143.90;100.00;58478.06;5073590;28;20282;-74
2021/09/22 01:02:53;;;;;;;15.20;10.37;;;;;;;-143.90;100.00;58478.06;5089365;28;20422;-74
2021/09/22 01:05:21;;;;;;;17.53;9.97;;;;;;;-143.90;100.00;58478.06;5089074;28;20402;-74
2021/09/22 01:07:48;;;;;;;14.90;10.20;;;;;;;-143.90;100.00;58478.06;5088407;28;20860;-73
2021/09/22 01:10:15;;;;;;;13.37;9.33;;;;;;;-143.90;100.00;58478.06;5089058;28;21086;-73
2021/09/22 01:12:41;;;;;;;26.80;11.60;;;;;;;-143.90;100.00;58478.06;5088846;28;20493;-74
2021/09/22 01:15:07;;;;;;;22.13;13.50;;;;;;;-143.90;100.00;58478.06;5088103;28;20415;-76
2021/09/22 01:17:32;;;;;;;21.93;12.20;;;;;;;-143.90;100.00;58478.06;5088577;28;20417;-75
2021/09/22 01:20:00;;;;;;;20.63;12.83;;;;;;;-143.90;100.00;58478.06;5088069;28;20426;-73
2021/09/22 01:22:26;;;;;;;23.20;12.97;;;;;;;-143.90;100.00;58478.06;5088609;28;20190;-74
2021/09/22 01:24:51;;;;;;;20.30;9.60;;;;;;;-143.90;100.00;58478.06;5088709;28;20418;-74
2021/09/22 01:27:17;;;;;;;17.43;10.67;;;;;;;-143.90;100.00;58478.06;5086804;28;20281;-75
2021/09/22 01:29:45;;;;;;;18.93;10.83;;;;;;;-143.90;100.00;58478.06;5088586;28;20176;-75
2021/09/22 01:32:11;;;;;;;19.23;11.40;;;;;;;-143.90;100.00;58478.06;5088277;28;20270;-74
2021/09/22 01:34:36;;;;;;;17.43;10.60;;;;;;;-143.90;100.00;58478.06;5089671;28;20406;-75
2021/09/22 01:37:02;;;;;;;20.13;9.83;;;;;;;-143.90;100.00;58478.06;5090847;28;20464;-75
2021/09/22 01:39:37;;;;;;;16.40;11.33;;;;;;;-143.90;100.00;58478.06;5090964;28;20565;-75
2021/09/22 01:42:02;;;;;;;15.03;10.47;;;;;;;-143.90;100.00;58478.06;5090660;28;20199;-75
2021/09/22 01:44:28;;;;;;;15.00;10.90;;;;;;;-143.90;100.00;58478.06;5072580;28;20490;-74
2021/09/22 01:46:53;;;;;;;17.70;13.17;;;;;;;-143.90;100.00;58478.06;5090873;28;20167;-75
2021/09/22 01:49:25;;;;;;;17.10;11.20;;;;;;;-143.90;100.00;58478.06;5090531;28;20260;-75
2021/09/22 01:52:02;;;;;;;19.40;12.30;;;;;;;-143.90;100.00;58478.06;5091005;28;20629;-74
2021/09/22 01:54:28;;;;;;;20.70;10.87;;;;;;;-143.90;100.00;58478.06;5090190;28;20417;-73
2021/09/22 01:56:54;;;;;;;16.80;10.33;;;;;;;-143.90;100.00;58478.06;5090653;28;20988;-73
2021/09/22 01:59:19;;;;;;;15.03;10.63;;;;;;;-143.90;100.00;58478.06;5090709;28;20418;-74
2021/09/22 02:01:46;;;;;;;18.50;10.80;;;;;;;-143.90;100.00;58478.06;5090614;28;20735;-75
2021/09/22 02:04:11;;;;;;;13.77;8.73;;;;;;;-143.90;100.00;58478.06;5090308;28;20179;-73
2021/09/22 02:06:37;;;;;;;21.23;10.87;;;;;;;-143.90;100.00;58478.06;5090951;28;20390;-73
2021/09/22 02:09:03;;;;;;;14.70;10.60;;;;;;;-143.90;100.00;58478.06;5090194;28;20603;-74
2021/09/22 02:11:29;;;;;;;17.10;11.30;;;;;;;-143.90;100.00;58478.06;5090372;28;20163;-75
2021/09/22 02:13:54;;;;;;;18.93;11.07;;;;;;;-143.90;100.00;58478.06;5090596;28;20405;-74
2021/09/22 02:16:20;;;;;;;22.53;11.10;;;;;;;-143.90;100.00;58478.06;5090697;28;20186;-75
2021/09/22 02:18:45;;;;;;;20.13;11.87;;;;;;;-143.90;100.00;58478.06;5090403;28;20190;-76
2021/09/22 02:21:11;;;;;;;17.87;12.33;;;;;;;-143.90;100.00;58478.06;5090362;28;20226;-74
2021/09/22 02:23:38;;;;;;;28.93;13.10;;;;;;;-143.90;100.00;58478.06;5090222;28;20163;-75
2021/09/22 02:26:04;;;;;;;20.20;13.40;;;;;;;-143.90;100.00;58478.06;5090424;28;20259;-75
2021/09/22 02:28:31;;;;;;;22.03;13.77;;;;;;;-143.90;100.00;58478.06;5090500;28;20899;-75
2021/09/22 02:30:58;;;;;;;24.23;13.77;;;;;;;-143.90;100.00;58478.06;5090313;28;20454;-73
2021/09/22 02:33:23;;;;;;;24.37;15.70;;;;;;;-143.90;100.00;58478.06;5090326;28;20394;-75
2021/09/22 02:35:49;;;;;;;27.63;16.97;;;;;;;-143.90;100.00;58478.06;5090099;28;20390;-75
2021/09/22 02:38:15;;;;;;;27.47;14.60;;;;;;;-143.90;100.00;58478.06;5090039;28;20207;-74
2021/09/22 02:40:41;;;;;;;29.00;16.60;;;;;;;-143.90;100.00;58478.06;5073045;28;20210;-72
2021/09/22 02:43:07;;;;;;;24.13;14.77;;;;;;;-143.90;100.00;58478.06;5095661;28;20421;-74
2021/09/22 02:45:32;;;;;;;21.90;14.30;;;;;;;-143.90;100.00;58478.06;5090300;28;20495;-74
2021/09/22 02:47:58;;;;;;;21.93;13.27;;;;;;;-143.90;100.00;58478.06;5090041;28;20544;-75
2021/09/22 02:50:24;;;;;;;20.20;11.90;;;;;;;-143.90;100.00;58478.06;5090182;28;20567;-75
2021/09/22 02:52:50;;;;;;;24.23;14.77;;;;;;;-143.90;100.00;58478.06;5090028;28;20156;-75
2021/09/22 02:55:16;;;;;;;17.93;12.13;;;;;;;-143.90;100.00;58478.06;5089937;28;20414;-74
2021/09/22 02:57:42;;;;;;;19.60;12.27;;;;;;;-143.90;100.00;58478.06;5089547;28;20184;-74
2021/09/22 03:00:09;;;;;;;20.17;12.50;;;;;;;-143.90;100.00;58478.06;5089892;28;20152;-75
2021/09/22 03:02:36;;;;;;;23.70;12.90;;;;;;;-143.90;100.00;58478.06;5090252;28;20391;-74
2021/09/22 03:05:02;;;;;;;21.57;14.23;;;;;;;-143.90;100.00;58478.06;5090123;28;20398;-75
2021/09/22 03:07:27;;;;;;;25.27;15.60;;;;;;;-143.90;100.00;58478.06;5089816;28;20406;-76
2021/09/22 03:09:53;;;;;;;21.50;14.30;;;;;;;-143.90;100.00;58478.06;5090216;28;20887;-75
2021/09/22 03:12:18;;;;;;;36.13;20.00;;;;;;;-143.90;100.00;58478.06;5089930;28;20251;-76
2021/09/22 03:14:43;;;;;;;28.57;17.50;;;;;;;-143.90;100.00;58478.06;5090006;28;20252;-76
2021/09/22 03:17:09;;;;;;;31.60;20.17;;;;;;;-143.90;100.00;58478.06;5089172;28;20164;-75
2021/09/22 03:19:34;;;;;;;33.73;19.93;;;;;;;-143.90;100.00;58478.06;5090045;28;20191;-74
2021/09/22 03:22:00;;;;;;;31.17;20.47;;;;;;;-143.90;100.00;58478.06;5089872;28;20199;-76
2021/09/22 03:24:25;;;;;;;30.83;21.50;;;;;;;-143.90;100.00;58478.06;5089859;28;20158;-75
2021/09/22 03:26:51;;;;;;;27.00;18.70;;;;;;;-143.90;100.00;58478.06;5089943;28;20163;-75
2021/09/22 03:29:17;;;;;;;25.93;17.13;;;;;;;-143.90;100.00;58478.06;5089947;28;20160;-76
2021/09/22 03:31:44;;;;;;;32.73;19.03;;;;;;;-143.90;100.00;58478.06;5089397;28;20164;-71
2021/09/22 03:34:10;;;;;;;25.57;17.67;;;;;;;-143.90;100.00;58478.06;5090281;28;20159;-73
2021/09/22 03:36:36;;;;;;;24.00;15.80;;;;;;;-143.90;100.00;58478.06;5089976;28;20466;-72
2021/09/22 03:39:02;;;;;;;27.03;17.80;;;;;;;-143.90;100.00;58478.06;5091917;28;20425;-74
2021/09/22 03:41:28;;;;;;;27.90;17.30;;;;;;;-143.90;100.00;58478.06;5093767;28;20669;-73
2021/09/22 03:43:53;;;;;;;30.70;20.73;;;;;;;-143.90;100.00;58478.06;5094114;28;20487;-72
2021/09/22 03:46:19;;;;;;;29.40;19.60;;;;;;;-143.90;100.00;58478.06;5093695;28;20179;-73
2021/09/22 03:48:45;;;;;;;31.20;22.67;;;;;;;-143.90;100.00;58478.06;5093468;28;20567;-73
2021/09/22 03:51:11;;;;;;;37.27;22.10;;;;;;;-143.90;100.00;58478.06;5094050;28;20618;-74
2021/09/22 03:53:36;;;;;;;29.27;21.10;;;;;;;-143.90;100.00;58478.06;5074910;28;20152;-74
2021/09/22 03:56:02;;;;;;;32.27;20.13;;;;;;;-143.90;100.00;58478.06;5093102;28;20159;-73
2021/09/22 03:58:29;;;;;;;29.23;19.80;;;;;;;-143.90;100.00;58478.06;5074297;28;20187;-73
2021/09/22 04:00:54;;;;;;;26.07;18.33;;;;;;;-143.90;100.00;58478.06;5092895;28;20496;-73
2021/09/22 04:03:20;;;;;;;28.77;18.97;;;;;;;-143.90;100.00;58478.06;5092480;28;20958;-73
2021/09/22 04:05:45;;;;;;;27.93;18.63;;;;;;;-143.90;100.00;58478.06;5092833;28;20190;-75
2021/09/22 04:08:11;;;;;;;26.80;18.93;;;;;;;-143.90;100.00;58478.06;5092568;28;20683;-75
2021/09/22 04:10:37;;;;;;;27.53;17.37;;;;;;;-143.90;100.00;58478.06;5092929;28;20589;-75
2021/09/22 04:13:03;;;;;;;29.07;17.40;;;;;;;-143.90;100.00;58478.06;5092675;28;20159;-75
2021/09/22 04:15:28;;;;;;;27.40;17.90;;;;;;;-143.90;100.00;58478.06;5092390;28;20382;-73
2021/09/22 04:17:54;;;;;;;23.87;16.23;;;;;;;-143.90;100.00;58478.06;5091748;28;20168;-77
2021/09/22 04:20:19;;;;;;;28.00;17.10;;;;;;;-143.90;100.00;58478.06;5092723;28;20159;-74
2021/09/22 04:22:45;;;;;;;27.43;16.33;;;;;;;-143.90;100.00;58478.06;5093049;28;21017;-75
2021/09/22 04:25:11;;;;;;;31.03;18.07;;;;;;;-143.90;100.00;58478.06;5092532;28;20224;-74
2021/09/22 04:27:37;;;;;;;24.93;16.13;;;;;;;-143.90;100.00;58478.06;5092600;28;20167;-76
2021/09/22 04:30:04;;;;;;;22.33;15.80;;;;;;;-143.90;100.00;58478.06;5092583;28;20210;-76
2021/09/22 04:32:30;;;;;;;29.90;15.17;;;;;;;-143.90;100.00;58478.06;5092314;28;20406;-75
2021/09/22 04:34:57;;;;;;;22.13;14.37;;;;;;;-143.90;100.00;58478.06;5092093;28;20414;-76
2021/09/22 04:37:22;;;;;;;25.73;14.90;;;;;;;-143.90;100.00;58478.06;5091934;28;20222;-76
2021/09/22 04:39:48;;;;;;;21.30;13.77;;;;;;;-143.90;100.00;58478.06;5092346;28;20406;-76
2021/09/22 04:42:14;;;;;;;27.43;15.20;;;;;;;-143.90;100.00;58478.06;5092251;28;20199;-75
2021/09/22 04:44:39;;;;;;;19.80;13.10;;;;;;;-143.90;100.00;58478.06;5092242;28;20554;-75
2021/09/22 04:47:05;;;;;;;21.33;13.67;;;;;;;-143.90;100.00;58478.06;5092190;28;20148;-75
2021/09/22 04:49:31;;;;;;;26.73;13.47;;;;;;;-143.90;100.00;58478.06;5091002;28;20674;-76
2021/09/22 04:51:58;;;;;;;19.80;11.90;;;;;;;-143.90;100.00;58478.06;5091833;28;20397;-77
2021/09/22 04:54:23;;;;;;;19.50;12.47;;;;;;;-143.90;100.00;58478.06;5091357;28;20711;-74
2021/09/22 04:56:49;;;;;;;17.93;10.77;;;;;;;-143.90;100.00;58478.06;5091609;28;20448;-77
2021/09/22 04:59:14;;;;;;;15.40;10.13;;;;;;;-143.90;100.00;58478.06;5091889;28;20671;-76
2021/09/22 05:01:40;;;;;;;16.60;11.60;;;;;;;-143.90;100.00;58478.06;5090879;28;20328;-76
2021/09/22 05:04:07;;;;;;;16.90;10.73;;;;;;;-143.90;100.00;58478.06;5091578;28;20254;-76
2021/09/22 05:06:34;;;;;;;14.30;8.50;;;;;;;-143.90;100.00;58478.06;5091250;28;20727;-75
2021/09/22 05:09:00;;;;;;;15.27;10.43;;;;;;;-143.90;100.00;58478.06;5091465;28;20390;-76
2021/09/22 05:11:26;;;;;;;15.20;10.07;;;;;;;-143.90;100.00;58478.06;5090948;28;20406;-76
2021/09/22 05:13:52;;;;;;;16.23;9.97;;;;;;;-143.90;100.00;58478.06;5090792;28;20478;-75
2021/09/22 05:16:17;;;;;;;18.20;9.40;;;;;;;-143.90;100.00;58478.06;5090617;28;20160;-75
2021/09/22 05:18:43;;;;;;;16.50;11.53;;;;;;;-143.90;100.00;58478.06;5091667;28;20247;-75
2021/09/22 05:21:08;;;;;;;14.60;9.73;;;;;;;-143.90;100.00;58478.06;5090787;28;20551;-75
2021/09/22 05:23:34;;;;;;;20.97;11.20;;;;;;;-143.90;100.00;58478.06;5091639;28;20175;-74
2021/09/22 05:25:59;;;;;;;14.90;8.90;;;;;;;-143.90;100.00;58478.06;5091011;28;20162;-75
2021/09/22 05:28:25;;;;;;;15.17;8.60;;;;;;;-143.90;100.00;58478.06;5090013;28;20164;-74
2021/09/22 05:30:50;;;;;;;14.10;8.50;;;;;;;-143.90;100.00;58478.06;5090113;28;20160;-75
2021/09/22 05:33:16;;;;;;;21.30;9.70;;;;;;;-143.90;100.00;58478.06;5091388;28;20173;-74
2021/09/22 05:35:42;;;;;;;13.47;7.47;;;;;;;-143.90;100.00;58478.06;5089729;28;21481;-75
2021/09/22 05:38:07;;;;;;;16.50;9.77;;;;;;;-143.90;100.00;58478.06;5090523;28;20559;-75
2021/09/22 05:40:33;;;;;;;13.73;8.57;;;;;;;-143.90;100.00;58478.06;5090775;28;20187;-75
2021/09/22 05:42:59;;;;;;;12.47;7.60;;;;;;;-143.90;100.00;58478.06;5072844;28;20228;-75
2021/09/22 05:45:24;;;;;;;12.40;7.80;;;;;;;-143.90;100.00;58478.06;5090668;28;20402;-73
2021/09/22 05:47:50;;;;;;;14.13;8.33;;;;;;;-143.90;100.00;58478.06;5090705;28;20250;-76
2021/09/22 05:50:16;;;;;;;14.70;8.03;;;;;;;-143.90;100.00;58478.06;5090792;28;20152;-73
2021/09/22 05:52:41;;;;;;;12.70;7.20;;;;;;;-143.90;100.00;58478.06;5072405;28;20621;-73
2021/09/22 05:55:07;;;;;;;16.23;8.00;;;;;;;-143.90;100.00;58478.06;5090347;28;20270;-73
2021/09/22 05:57:33;;;;;;;11.60;7.23;;;;;;;-143.90;100.00;58478.06;5090326;28;20171;-76
2021/09/22 05:59:59;;;;;;;17.60;9.30;;;;;;;-143.90;100.00;58478.06;5090216;28;20160;-76
2021/09/22 06:02:24;;;;;;;14.17;8.83;;;;;;;-143.90;100.00;58478.06;5089608;28;20257;-75
2021/09/22 06:04:50;;;;;;;15.70;9.00;;;;;;;-143.90;100.00;58478.06;5091506;28;20159;-75
2021/09/22 06:07:15;;;;;;;21.00;8.57;;;;;;;-143.90;100.00;58478.06;5090564;28;20198;-75
2021/09/22 06:09:41;;;;;;;13.40;8.27;;;;;;;-143.90;100.00;58478.06;5090455;28;20258;-76
2021/09/22 06:12:06;;;;;;;21.53;9.87;;;;;;;-143.90;100.00;58478.06;5090238;28;20172;-75
2021/09/22 06:14:32;;;;;;;14.20;8.70;;;;;;;-143.90;100.00;58478.06;5090407;28;20637;-76
2021/09/22 06:16:57;;;;;;;13.53;7.90;;;;;;;-143.90;100.00;58478.06;5090055;28;20171;-75
2021/09/22 06:19:23;;;;;;;12.10;7.90;;;;;;;-143.90;100.00;58478.06;5090204;28;20595;-74
2021/09/22 06:21:49;;;;;;;19.20;8.37;;;;;;;-143.90;100.00;58478.06;5089659;28;20301;-75
2021/09/22 06:24:18;;;;;;;18.40;8.40;;;;;;;-143.90;100.00;58478.06;5090245;28;20158;-75
2021/09/22 06:26:45;;;;;;;20.43;8.27;;;;;;;-143.90;100.00;58478.06;5089700;28;21205;-75
2021/09/22 06:29:10;;;;;;;15.30;7.70;;;;;;;-143.90;100.00;58478.06;5091129;28;20406;-74
2021/09/22 06:31:37;;;;;;;13.30;7.30;;;;;;;-143.90;100.00;58478.06;5089707;28;20459;-75
2021/09/22 06:34:04;;;;;;;13.07;7.80;;;;;;;-143.90;100.00;58478.06;5089510;28;20158;-74
2021/09/22 06:36:29;;;;;;;14.17;7.53;;;;;;;-143.90;100.00;58478.06;5089278;28;20414;-73
2021/09/22 06:38:55;;;;;;;13.13;8.30;;;;;;;-143.90;100.00;58478.06;5089739;28;20779;-74
2021/09/22 06:41:21;;;;;;;17.00;7.63;;;;;;;-143.90;100.00;58478.06;5091196;28;20239;-73
2021/09/22 06:43:46;;;;;;;17.10;9.80;;;;;;;-143.90;100.00;58478.06;5099697;28;20163;-72
2021/09/22 06:46:12;;;;;;;15.60;8.77;;;;;;;-143.90;100.00;58478.06;5091868;28;20235;-75
2021/09/22 06:48:37;;;;;;;16.13;8.80;;;;;;;-143.90;100.00;58478.06;5106094;28;20198;-73
2021/09/22 06:51:03;;;;;;;13.40;9.70;;;;;;;-143.90;100.00;58478.06;5110064;28;20593;-72
2021/09/22 06:53:28;;;;;;;13.80;8.87;;;;;;;-143.90;100.00;58478.06;5096921;28;20222;-76
2021/09/22 06:55:54;;;;;;;18.17;9.20;;;;;;;-143.90;100.00;58478.06;5092887;28;20179;-77
2021/09/22 06:58:20;;;;;;;15.27;9.33;;;;;;;-143.90;100.00;58478.06;5089429;28;20159;-75
2021/09/22 07:00:45;;;;;;;12.90;8.60;;;;;;;-143.90;100.00;58478.06;5089173;28;20818;-75
2021/09/22 07:03:11;;;;;;;16.97;10.53;;;;;;;-143.90;100.00;58478.06;5089859;28;20178;-76
2021/09/22 07:05:43;;;;;;;18.37;9.87;;;;;;;-143.90;100.00;58478.06;5089960;28;20156;-76
2021/09/22 07:08:08;;;;;;;21.60;10.17;;;;;;;-143.90;100.00;58478.06;5089811;28;20394;-76
2021/09/22 07:10:34;;;;;;;17.70;9.20;;;;;;;-143.90;100.00;58478.06;5089219;28;20414;-77
2021/09/22 07:13:00;;;;;;;17.97;10.07;;;;;;;-143.90;100.00;58478.06;5090058;28;20152;-79
2021/09/22 07:15:26;;;;;;;17.43;8.40;;;;;;;-143.90;100.00;58478.06;5092972;28;20903;-79
2021/09/22 07:17:52;;;;;;;16.27;9.00;;;;;;;-143.90;100.00;58478.06;5094113;28;20413;-79
2021/09/22 07:20:17;;;;;;;20.73;10.00;;;;;;;-143.90;100.00;58478.06;5093357;28;20170;-78
2021/09/22 07:22:43;;;;;;;22.23;10.00;;;;;;;-143.90;100.00;58478.06;5093533;28;20159;-78
2021/09/22 07:25:10;;;;;;;15.80;9.03;;;;;;;-143.90;100.00;58478.06;5093651;28;20174;-78
2021/09/22 07:27:36;;;;;;;13.20;7.80;;;;;;;-143.90;100.00;58478.06;5093179;28;20309;-78
2021/09/22 07:30:01;;;;;;;14.20;9.23;;;;;;;-143.90;100.00;58478.06;5093790;28;20469;-78
2021/09/22 07:32:27;;;;;;;18.23;9.93;;;;;;;-143.90;100.00;58478.06;5093668;28;20151;-77
2021/09/22 07:34:52;;;;;;;15.27;9.67;;;;;;;-143.90;100.00;58478.06;5093101;28;20518;-77
2021/09/22 07:37:18;;;;;;;24.20;9.57;;;;;;;-143.90;100.00;58478.06;5093407;28;20219;-77
2021/09/22 07:39:44;;;;;;;13.73;8.43;;;;;;;-143.90;100.00;58478.06;5093273;28;20628;-76
2021/09/22 07:42:12;;;;;;;14.93;8.60;;;;;;;-143.90;100.00;58478.06;5093299;28;20199;-79
2021/09/22 07:44:42;;;;;;;12.43;8.30;;;;;;;-143.90;100.00;58478.06;5093238;28;20261;-79
2021/09/22 07:47:07;;;;;;;19.47;9.00;;;;;;;-143.90;100.00;58478.06;5093208;28;20813;-79
2021/09/22 07:49:33;;;;;;;13.37;7.97;;;;;;;-143.90;100.00;58478.06;5092984;28;20892;-79
2021/09/22 07:51:59;;;;;;;14.13;9.27;;;;;;;-143.90;100.00;58478.06;5093223;28;20198;-80
2021/09/22 07:54:25;;;;;;;15.23;8.43;;;;;;;-143.90;100.00;58478.06;5093374;28;20217;-78
2021/09/22 07:56:50;;;;;;;15.43;8.37;;;;;;;-143.90;100.00;58478.06;5092985;28;20246;-77
2021/09/22 07:59:16;;;;;;;14.73;8.87;;;;;;;-143.90;100.00;58478.06;5093014;28;20477;-77
2021/09/22 08:01:41;;;;;;;14.73;9.70;;;;;;;-143.90;100.00;58478.06;5092740;28;20236;-79
2021/09/22 08:04:07;;;;;;;12.27;9.00;;;;;;;-143.90;100.00;58478.06;5092536;28;20584;-78
2021/09/22 08:06:32;;;;;;;15.30;8.40;;;;;;;-143.90;100.00;58478.06;5093222;28;20208;-78
2021/09/22 08:08:58;;;;;;;13.63;8.50;;;;;;;-143.90;100.00;58478.06;5092965;28;20168;-78
2021/09/22 08:11:23;;;;;;;13.40;8.40;;;;;;;-143.90;100.00;58478.06;5092700;28;20171;-78
2021/09/22 08:13:49;;;;;;;15.03;9.83;;;;;;;-143.90;100.00;58478.06;5092785;28;20175;-78
2021/09/22 08:16:15;;;;;;;13.23;9.50;;;;;;;-143.90;100.00;58478.06;5074523;28;20172;-79
2021/09/22 08:18:46;;;;;;;13.77;8.37;;;;;;;-143.90;100.00;58478.06;5092823;28;20536;-78
2021/09/22 08:21:15;;;;;;;11.47;7.07;;;;;;;-143.90;100.00;58478.06;5092100;28;20537;-77
2021/09/22 08:23:41;;;;;;;13.77;7.83;;;;;;;-143.90;100.00;58478.06;5092052;28;20387;-78
2021/09/22 08:26:08;;;;;;;12.70;8.70;;;;;;;-143.90;100.00;58478.06;5092454;28;20390;-79
2021/09/22 08:28:33;;;;;;;12.67;8.00;;;;;;;-143.90;100.00;58478.06;5092287;28;20424;-76
2021/09/22 08:30:59;;;;;;;10.97;6.60;;;;;;;-143.90;100.00;58478.06;5092267;28;20390;-77
2021/09/22 08:33:24;;;;;;;12.13;7.30;;;;;;;-143.90;100.00;58478.06;5091959;28;20148;-77
2021/09/22 08:35:50;;;;;;;11.20;6.47;;;;;;;-143.90;100.00;58478.06;5091908;28;20676;-77
2021/09/22 08:38:16;;;;;;;9.77;6.13;;;;;;;-143.90;100.00;58478.06;5091563;28;20223;-80
2021/09/22 08:40:41;;;;;;;10.97;7.00;;;;;;;-143.90;100.00;58478.06;5091350;28;20187;-78
2021/09/22 08:43:07;;;;;;;9.40;6.10;;;;;;;-143.90;100.00;58478.06;5091762;28;20160;-79
2021/09/22 08:45:34;;;;;;;10.30;5.93;;;;;;;-143.90;100.00;58478.06;5091421;28;20147;-78
2021/09/22 08:48:00;;;;;;;14.57;6.97;;;;;;;-143.90;100.00;58478.06;5091548;28;20255;-79
2021/09/22 08:50:25;;;;;;;9.40;6.17;;;;;;;-143.90;100.00;58478.06;5091869;28;20460;-77
2021/09/22 08:52:51;;;;;;;11.07;6.67;;;;;;;-143.90;100.00;58478.06;5091416;28;20583;-78
2021/09/22 08:55:17;;;;;;;11.07;6.50;;;;;;;-143.90;100.00;58478.06;5091782;28;20163;-78
2021/09/22 08:57:42;;;;;;;10.23;5.90;;;;;;;-143.90;100.00;58478.06;5091866;28;20274;-76
2021/09/22 09:00:10;;;;;;;12.60;7.70;;;;;;;-143.90;100.00;58478.06;5091472;28;20167;-77
2021/09/22 09:02:42;;;;;;;14.80;7.70;;;;;;;-143.90;100.00;58478.06;5091277;28;20226;-78
2021/09/22 09:05:13;;;;;;;12.10;7.83;;;;;;;-143.90;100.00;58478.06;5093053;28;20401;-78
2021/09/22 09:08:00;;;;;;;11.23;8.00;;;;;;;-143.90;100.00;58478.06;5091303;28;20390;-77
2021/09/22 09:10:34;;;;;;;14.90;8.07;;;;;;;-143.90;100.00;58478.06;5091167;28;20395;-76
2021/09/22 09:13:03;;;;;;;13.43;8.43;;;;;;;-143.90;100.00;58478.06;5091295;28;20402;-77
2021/09/22 09:15:32;;;;;;;11.00;7.47;;;;;;;-143.90;100.00;58478.06;5091410;28;20471;-80
2021/09/22 09:18:00;;;;;;;14.67;6.90;;;;;;;-143.90;100.00;58478.06;5091126;28;20416;-79
2021/09/22 09:20:27;;;;;;;12.23;7.50;;;;;;;-143.90;100.00;58478.06;5090648;28;20459;-78
2021/09/22 09:23:02;;;;;;;13.00;7.73;;;;;;;-143.90;100.00;58478.06;5090670;28;20455;-77
2021/09/22 09:25:37;;;;;;;10.50;7.60;;;;;;;-143.90;100.00;58478.06;5091044;28;20405;-77
2021/09/22 09:28:22;;;;;;;10.33;7.63;;;;;;;-143.90;100.00;58478.06;5090802;28;20461;-78
2021/09/22 09:30:51;;;;;;;10.93;7.00;;;;;;;-143.90;100.00;58478.06;5091401;28;20864;-78
2021/09/22 09:33:52;;;;;;;12.03;7.03;;;;;;;-143.90;100.00;58478.06;5091505;28;20394;-77
2021/09/22 09:36:34;;;;;;;14.00;6.87;;;;;;;-143.90;100.00;58478.06;5090232;28;20393;-80
2021/09/22 09:39:03;;;;;;;10.60;7.03;;;;;;;-143.90;100.00;58478.06;5090858;28;20394;-76
2021/09/22 09:41:30;;;;;;;12.53;8.87;;;;;;;-143.90;100.00;58478.06;5091013;28;20457;-77
2021/09/22 09:43:59;;;;;;;12.97;7.70;;;;;;;-143.90;100.00;58478.06;5091214;28;20390;-77
2021/09/22 09:46:27;;;;;;;12.07;7.60;;;;;;;-143.90;100.00;58478.06;5090622;28;20418;-78
2021/09/22 09:49:08;;;;;;;12.70;8.30;;;;;;;-143.90;100.00;58478.06;5090729;28;20538;-78
2021/09/22 09:51:35;;;;;;;15.13;9.30;;;;;;;-143.90;100.00;58478.06;5091373;28;20409;-78
2021/09/22 09:54:08;;;;;;;12.50;8.23;;;;;;;-143.90;100.00;58478.06;5091847;28;20450;-79
2021/09/22 09:56:34;;;;;;;14.07;8.10;;;;;;;-143.90;100.00;58478.06;5090710;28;20738;-77
2021/09/22 09:59:00;;;;;;;15.93;8.80;;;;;;;-143.90;100.00;58478.06;5090204;28;20432;-78
2021/09/22 10:01:40;;;;;;;12.77;8.80;;;;;;;-143.90;100.00;58478.06;5090121;28;20187;-76
2021/09/22 10:04:07;;;;;;;12.97;9.50;;;;;;;-143.90;100.00;58478.06;5090182;28;20385;-78
2021/09/22 10:06:33;;;;;;;20.60;10.80;;;;;;;-143.90;100.00;58478.06;5090007;28;20386;-78
2021/09/22 10:08:59;;;;;;;15.00;9.57;;;;;;;-143.90;100.00;58478.06;5071900;28;20555;-79
2021/09/22 10:11:25;;;;;;;15.03;10.13;;;;;;;-143.90;100.00;58478.06;5090266;28;20222;-80
2021/09/22 10:13:52;;;;;;;14.13;9.90;;;;;;;-143.90;100.00;58478.06;5090695;28;20416;-78
2021/09/22 10:16:19;;;;;;;13.80;10.03;;;;;;;-143.90;100.00;58478.06;5089936;28;20426;-79
2021/09/22 10:18:48;;;;;;;13.70;9.97;;;;;;;-143.90;100.00;58478.06;5090093;28;20845;-76
2021/09/22 10:21:15;;;;;;;16.07;10.07;;;;;;;-143.90;100.00;58478.06;5089891;28;20457;-79
2021/09/22 10:23:43;;;;;;;15.80;8.90;;;;;;;-143.90;100.00;58478.06;5090362;28;20535;-79
2021/09/22 10:26:09;;;;;;;15.03;9.37;;;;;;;-143.90;100.00;58478.06;5089697;28;20477;-80
2021/09/22 10:28:41;;;;;;;20.53;10.83;;;;;;;-143.90;100.00;58478.06;5090258;28;20513;-80
2021/09/22 10:31:16;;;;;;;12.63;9.13;;;;;;;-143.90;100.00;58478.06;5090153;28;20402;-79
2021/09/22 10:33:46;;;;;;;15.23;9.20;;;;;;;-143.90;100.00;58478.06;5090198;28;20512;-79
2021/09/22 10:36:12;;;;;;;11.30;8.00;;;;;;;-143.90;100.00;58478.06;5089995;28;20402;-77
2021/09/22 10:38:41;;;;;;;16.53;9.67;;;;;;;-143.90;100.00;58478.06;5089446;28;20406;-80
2021/09/22 10:41:07;;;;;;;12.60;7.50;;;;;;;-143.90;100.00;58478.06;5089903;28;20456;-79
2021/09/22 10:43:45;;;;;;;12.43;7.10;;;;;;;-143.90;100.00;58478.06;5089828;28;20934;-77
2021/09/22 10:46:17;;;;;;;13.33;8.83;;;;;;;-143.90;100.00;58478.06;5089816;28;20496;-77
2021/09/22 10:48:51;;;;;;;10.83;7.23;;;;;;;-143.90;100.00;58478.06;5091643;28;20421;-78
2021/09/22 10:51:30;;;;;;;14.53;7.60;;;;;;;-143.90;100.00;58478.06;5093923;28;20476;-75
2021/09/22 10:54:08;;;;;;;10.03;6.83;;;;;;;-143.90;100.00;58478.06;5094318;28;20389;-76
2021/09/22 10:56:34;;;;;;;16.03;7.10;;;;;;;-143.90;100.00;58478.06;5093410;28;20397;-77
2021/09/22 10:59:06;;;;;;;13.63;7.70;;;;;;;-143.90;100.00;58478.06;5094053;28;20417;-78